createdAt,value
2022-08-06T00:00:03.161Z,97640.56
2022-08-06T00:02:29.295Z,97644.06
2022-08-06T00:05:01.321Z,97643.70
2022-08-06T00:07:45.073Z,97641.30
2022-08-06T00:10:19.575Z,97639.13
2022-08-06T00:13:02.062Z,97639.70
2022-08-06T00:16:10.666Z,97637.48
2022-08-06T00:18:20.964Z,97640.00
2022-08-06T00:20:50.508Z,97641.59
2022-08-06T00:23:18.850Z,97638.20
2022-08-06T00:25:53.372Z,97637.21
2022-08-06T00:28:30.928Z,97633.55
2022-08-06T00:31:05.723Z,97636.81
2022-08-06T00:33:44.223Z,97634.95
2022-08-06T00:36:18.950Z,97636.83
2022-08-06T00:38:53.573Z,97637.85
2022-08-06T00:41:22.501Z,97635.85
2022-08-06T00:43:49.613Z,97634.40
2022-08-06T00:46:16.917Z,97633.92
2022-08-06T00:48:53.928Z,97632.47
2022-08-06T00:51:23.352Z,97628.52
2022-08-06T00:53:57.795Z,97630.78
2022-08-06T00:56:28.243Z,97634.29
2022-08-06T00:59:01.151Z,97633.56
2022-08-06T01:01:50.960Z,97632.97
2022-08-06T01:04:19.782Z,97633.52
2022-08-06T01:06:57.727Z,97634.95
2022-08-06T01:09:26.887Z,97633.16
2022-08-06T01:11:59.371Z,97633.70
2022-08-06T01:14:38.249Z,97637.55
2022-08-06T01:17:24.741Z,97635.48
2022-08-06T01:21:59.418Z,97630.48
2022-08-06T01:23:37.304Z,97630.39
2022-08-06T01:26:20.123Z,97631.67
2022-08-06T01:28:55.977Z,97631.02
2022-08-06T01:31:51.041Z,97630.27
2022-08-06T01:34:31.326Z,97634.38
2022-08-06T01:37:14.979Z,97633.27
2022-08-06T01:39:54.095Z,97632.11
2022-08-06T01:42:36.362Z,97632.20
2022-08-06T01:45:10.114Z,97634.52
2022-08-06T01:47:53.495Z,97642.48
2022-08-06T01:50:46.408Z,97641.19
2022-08-06T01:53:30.048Z,97639.86
2022-08-06T01:56:11.329Z,97636.88
2022-08-06T01:58:44.139Z,97637.13
2022-08-06T02:01:16.299Z,97637.11
2022-08-06T02:03:58.817Z,97636.92
2022-08-06T02:06:37.848Z,97634.58
2022-08-06T02:09:23.099Z,97632.81
2022-08-06T02:12:06.911Z,97630.42
2022-08-06T02:14:48.394Z,97625.83
2022-08-06T02:17:26.670Z,97619.80
2022-08-06T02:20:18.511Z,97621.17
2022-08-06T02:23:01.929Z,97621.38
2022-08-06T02:25:34.728Z,97624.38
2022-08-06T02:28:05.484Z,97627.43
2022-08-06T02:30:42.414Z,97628.38
2022-08-06T02:33:18.214Z,97625.89
2022-08-06T02:35:52.570Z,97626.39
2022-08-06T02:38:43.386Z,97625.67
2022-08-06T02:41:55.831Z,97622.98
2022-08-06T02:44:53.760Z,97626.77
2022-08-06T02:48:02.087Z,97633.20
2022-08-06T02:50:37.512Z,97630.69
2022-08-06T02:53:24.848Z,97628.13
2022-08-06T02:56:06.958Z,97630.63
2022-08-06T02:58:57.020Z,97630.71
2022-08-06T03:01:43.540Z,97636.22
2022-08-06T03:04:14.665Z,97640.41
2022-08-06T03:06:46.138Z,97639.40
2022-08-06T03:09:17.444Z,97642.30
2022-08-06T03:11:47.333Z,97644.11
2022-08-06T03:14:38.682Z,97644.24
2022-08-06T03:17:08.430Z,97640.79
2022-08-06T03:19:58.228Z,97641.66
2022-08-06T03:22:35.114Z,97639.43
2022-08-06T03:25:08.778Z,97643.91
2022-08-06T03:27:43.200Z,97641.31
2022-08-06T03:30:31.619Z,97642.39
2022-08-06T03:33:29.788Z,97644.54
2022-08-06T03:36:01.311Z,97643.32
2022-08-06T03:38:37.795Z,97653.73
2022-08-06T03:41:07.897Z,97653.44
2022-08-06T03:43:56.416Z,97652.80
2022-08-06T03:46:47.244Z,97652.91
2022-08-06T03:49:41.220Z,97650.23
2022-08-06T03:52:25.084Z,97654.39
2022-08-06T03:54:57.759Z,97656.91
2022-08-06T03:57:40.395Z,97657.83
2022-08-06T04:00:11.676Z,97659.69
2022-08-06T04:02:47.834Z,97657.18
2022-08-06T04:05:30.281Z,97657.29
2022-08-06T04:08:05.066Z,97656.52
2022-08-06T04:10:52.719Z,97656.14
2022-08-06T04:14:03.841Z,97658.82
2022-08-06T04:16:33.381Z,97661.89
2022-08-06T04:19:09.232Z,97662.59
2022-08-06T04:23:04.417Z,97664.27
2022-08-06T04:24:29.951Z,97667.89
2022-08-06T04:27:09.430Z,97669.82
2022-08-06T04:29:56.290Z,97671.77
2022-08-06T04:32:29.614Z,97669.98
2022-08-06T04:36:07.149Z,97670.40
2022-08-06T04:37:53.298Z,97677.33
2022-08-06T04:40:34.750Z,97673.84
2022-08-06T04:43:10.672Z,97673.80
2022-08-06T04:46:17.423Z,97675.15
2022-08-06T04:48:34.322Z,97680.84
2022-08-06T04:51:10.511Z,97680.46
2022-08-06T04:53:57.592Z,97680.36
2022-08-06T04:56:25.016Z,97685.17
2022-08-06T04:59:00.575Z,97681.71
2022-08-06T05:01:27.698Z,97681.47
2022-08-06T05:04:08.397Z,97679.84
2022-08-06T05:07:02.363Z,97677.98
2022-08-06T05:09:43.856Z,97680.74
2022-08-06T05:12:22.966Z,97675.34
2022-08-06T05:15:08.854Z,97674.17
2022-08-06T05:17:48.656Z,97672.02
2022-08-06T05:20:27.600Z,97674.59
2022-08-06T05:23:03.751Z,97667.73
2022-08-06T05:25:39.766Z,97665.07
2022-08-06T05:28:19.717Z,97662.62
2022-08-06T05:30:51.989Z,97664.08
2022-08-06T05:33:31.560Z,97664.94
2022-08-06T05:36:02.866Z,97661.71
2022-08-06T05:38:38.779Z,97660.02
2022-08-06T05:41:19.838Z,97662.02
2022-08-06T05:43:58.907Z,97666.32
2022-08-06T05:46:35.004Z,97664.69
2022-08-06T05:49:56.170Z,97658.83
2022-08-06T05:52:18.048Z,97658.96
2022-08-06T05:55:16.725Z,97658.58
2022-08-06T05:57:58.191Z,97649.86
2022-08-06T06:00:43.112Z,97650.23
2022-08-06T06:03:24.497Z,97653.16
2022-08-06T06:06:05.628Z,97651.96
2022-08-06T06:08:40.202Z,97654.58
2022-08-06T06:11:59.270Z,97655.31
2022-08-06T06:14:36.758Z,97652.06
2022-08-06T06:17:23.246Z,97650.45
2022-08-06T06:20:58.580Z,97648.08
2022-08-06T06:23:26.567Z,97651.90
2022-08-06T06:26:35.235Z,97644.64
2022-08-06T06:30:10.668Z,97645.64
2022-08-06T06:33:15.783Z,97650.34
2022-08-06T06:35:55.486Z,97644.50
2022-08-06T06:38:51.811Z,97647.17
2022-08-06T06:41:44.702Z,97642.57
2022-08-06T06:45:03.515Z,97645.52
2022-08-06T06:47:28.391Z,97643.71
2022-08-06T06:50:12.220Z,97643.73
2022-08-06T06:52:43.436Z,97644.09
2022-08-06T06:55:51.983Z,97637.69
2022-08-06T06:58:33.104Z,97635.84
2022-08-06T07:01:12.096Z,97632.69
2022-08-06T07:03:50.202Z,97634.91
2022-08-06T07:06:31.267Z,97631.48
2022-08-06T07:09:12.433Z,97633.77
2022-08-06T07:12:02.338Z,97637.80
2022-08-06T07:14:35.483Z,97639.77
2022-08-06T07:17:44.785Z,97636.17
2022-08-06T07:19:57.119Z,97634.44
2022-08-06T07:22:27.383Z,97631.83
2022-08-06T07:25:02.364Z,97629.69
2022-08-06T07:27:41.789Z,97630.64
2022-08-06T07:30:16.104Z,97629.77
2022-08-06T07:32:48.493Z,97622.92
2022-08-06T07:35:20.019Z,97623.63
2022-08-06T07:37:55.467Z,97625.90
2022-08-06T07:40:39.262Z,97624.31
2022-08-06T07:43:38.734Z,97618.64
2022-08-06T07:46:10.851Z,97618.79
2022-08-06T07:48:52.887Z,97616.17
2022-08-06T07:51:33.535Z,97615.27
2022-08-06T07:54:09.454Z,97612.80
2022-08-06T07:57:00.702Z,97613.66
2022-08-06T07:59:30.536Z,97614.48
2022-08-06T08:02:01.071Z,97615.30
2022-08-06T08:04:52.064Z,97613.10
2022-08-06T08:07:38.006Z,97615.46
2022-08-06T08:10:15.320Z,97614.21
2022-08-06T08:12:44.613Z,97609.34
2022-08-06T08:15:17.984Z,97611.26
2022-08-06T08:17:46.557Z,97611.86
2022-08-06T08:20:25.185Z,97614.58
2022-08-06T08:23:03.115Z,97614.93
2022-08-06T08:25:40.021Z,97615.14
2022-08-06T08:28:14.880Z,97612.93
2022-08-06T08:30:48.087Z,97615.28
2022-08-06T08:33:21.263Z,97614.84
2022-08-06T08:35:59.809Z,97611.70
2022-08-06T08:38:29.985Z,97616.43
2022-08-06T08:41:01.215Z,97617.14
2022-08-06T08:43:59.285Z,97613.34
2022-08-06T08:46:31.005Z,97612.09
2022-08-06T08:49:05.532Z,97611.77
2022-08-06T08:51:42.826Z,97610.95
2022-08-06T08:54:17.451Z,97608.59
2022-08-06T08:57:10.867Z,97606.67
2022-08-06T08:59:59.546Z,97603.44
2022-08-06T09:02:25.583Z,97604.15
2022-08-06T09:04:54.533Z,97601.35
2022-08-06T09:07:36.803Z,97593.95
2022-08-06T09:10:09.099Z,97593.09
2022-08-06T09:12:45.142Z,97595.98
2022-08-06T09:15:17.802Z,97592.70
2022-08-06T09:18:11.637Z,97588.22
2022-08-06T09:20:36.928Z,97589.02
2022-08-06T09:23:07.294Z,97586.27
2022-08-06T09:25:49.853Z,97584.55
2022-08-06T09:28:45.277Z,97578.70
2022-08-06T09:31:22.058Z,97582.49
2022-08-06T09:34:29.833Z,97582.02
2022-08-06T09:36:52.388Z,97582.02
2022-08-06T09:39:46.070Z,97583.07
2022-08-06T09:42:48.941Z,97580.77
2022-08-06T09:45:42.821Z,97575.25
2022-08-06T09:48:17.800Z,97572.72
2022-08-06T09:50:50.908Z,97570.33
2022-08-06T09:53:21.637Z,97568.27
2022-08-06T09:55:58.138Z,97574.52
2022-08-06T09:58:35.606Z,97570.59
2022-08-06T10:01:22.650Z,97572.83
2022-08-06T10:04:02.290Z,97570.41
2022-08-06T10:06:32.810Z,97567.81
2022-08-06T10:09:11.910Z,97572.20
2022-08-06T10:11:49.646Z,97568.23
2022-08-06T10:14:33.526Z,97560.67
2022-08-06T10:17:10.952Z,97557.81
2022-08-06T10:19:51.921Z,97557.94
2022-08-06T10:22:21.707Z,97561.50
2022-08-06T10:24:54.074Z,97557.54
2022-08-06T10:27:36.439Z,97562.61
2022-08-06T10:30:10.859Z,97557.19
2022-08-06T10:32:53.728Z,97557.84
2022-08-06T10:35:25.613Z,97558.65
2022-08-06T10:38:14.597Z,97558.10
2022-08-06T10:40:57.141Z,97559.68
2022-08-06T10:43:34.363Z,97563.95
2022-08-06T10:46:07.749Z,97564.48
2022-08-06T10:50:19.880Z,97558.98
2022-08-06T10:51:56.661Z,97551.15
2022-08-06T10:54:19.059Z,97554.02
2022-08-06T10:56:47.480Z,97551.20
2022-08-06T10:59:19.489Z,97544.40
2022-08-06T11:02:56.858Z,97547.38
2022-08-06T11:05:42.661Z,97548.77
2022-08-06T11:09:00.066Z,97549.11
2022-08-06T11:11:39.660Z,97544.45
2022-08-06T11:14:18.435Z,97536.46
2022-08-06T11:17:00.733Z,97533.64
2022-08-06T11:19:56.815Z,97534.66
2022-08-06T11:22:54.067Z,97541.86
2022-08-06T11:25:41.663Z,97536.61
2022-08-06T11:28:14.711Z,97537.23
2022-08-06T11:30:48.119Z,97532.61
2022-08-06T11:33:20.141Z,97531.40
2022-08-06T11:35:54.534Z,97530.44
2022-08-06T11:38:48.736Z,97532.00
2022-08-06T11:41:54.751Z,97536.16
2022-08-06T11:44:21.484Z,97529.10
2022-08-06T11:47:13.858Z,97534.18
2022-08-06T11:49:47.865Z,97535.77
2022-08-06T11:52:41.095Z,97525.80
2022-08-06T11:55:23.011Z,97524.99
2022-08-06T11:58:20.791Z,97519.93
2022-08-06T12:01:03.311Z,97512.66
2022-08-06T12:03:49.091Z,97519.11
2022-08-06T12:06:26.004Z,97521.56
2022-08-06T12:09:22.861Z,97519.58
2022-08-06T12:12:27.856Z,97513.52
2022-08-06T12:15:24.235Z,97512.15
2022-08-06T12:18:20.545Z,97508.85
2022-08-06T12:20:56.180Z,97505.10
2022-08-06T12:23:53.846Z,97508.03
2022-08-06T12:26:12.223Z,97509.46
2022-08-06T12:28:40.060Z,97500.92
2022-08-06T12:31:35.790Z,97501.80
2022-08-06T12:33:54.148Z,97501.48
2022-08-06T12:36:32.105Z,97503.25
2022-08-06T12:39:10.713Z,97500.84
2022-08-06T12:41:47.428Z,97496.99
2022-08-06T12:44:20.195Z,97494.41
2022-08-06T12:47:13.615Z,97497.81
2022-08-06T12:49:43.852Z,97499.37
2022-08-06T12:52:17.731Z,97502.63
2022-08-06T12:54:45.264Z,97502.08
2022-08-06T12:57:28.557Z,97496.90
2022-08-06T13:00:15.363Z,97496.13
2022-08-06T13:02:46.347Z,97491.49
2022-08-06T13:05:15.146Z,97490.79
2022-08-06T13:07:44.465Z,97490.77
2022-08-06T13:10:33.392Z,97488.52
2022-08-06T13:14:14.086Z,97488.79
2022-08-06T13:16:04.495Z,97491.77
2022-08-06T13:18:46.720Z,97486.96
2022-08-06T13:21:22.390Z,97479.76
2022-08-06T13:23:53.683Z,97485.77
2022-08-06T13:26:28.064Z,97488.67
2022-08-06T13:30:34.536Z,97493.23
2022-08-06T13:32:19.304Z,97489.34
2022-08-06T13:34:57.821Z,97490.45
2022-08-06T13:38:06.083Z,97493.70
2022-08-06T13:40:51.359Z,97491.27
2022-08-06T13:43:42.819Z,97488.63
2022-08-06T13:46:20.158Z,97485.81
2022-08-06T13:48:58.825Z,97488.06
2022-08-06T13:51:28.776Z,97482.69
2022-08-06T13:53:58.557Z,97481.04
2022-08-06T13:56:28.166Z,97483.17
2022-08-06T13:58:58.828Z,97483.50
2022-08-06T14:01:34.862Z,97484.79
2022-08-06T14:04:18.347Z,97480.77
2022-08-06T14:06:48.389Z,97479.52
2022-08-06T14:09:20.695Z,97475.69
2022-08-06T14:11:56.874Z,97477.29
2022-08-06T14:14:28.942Z,97477.51
2022-08-06T14:16:58.478Z,97476.78
2022-08-06T14:20:14.184Z,97479.80
2022-08-06T14:22:14.150Z,97476.76
2022-08-06T14:24:41.201Z,97475.05
2022-08-06T14:27:23.838Z,97474.66
2022-08-06T14:30:26.688Z,97478.08
2022-08-06T14:32:40.572Z,97477.80
2022-08-06T14:35:10.144Z,97475.21
2022-08-06T14:37:51.894Z,97473.89
2022-08-06T14:41:02.054Z,97473.89
2022-08-06T14:43:56.600Z,97471.64
2022-08-06T14:46:31.048Z,97465.36
2022-08-06T14:49:09.066Z,97468.45
2022-08-06T14:52:19.740Z,97467.73
2022-08-06T14:54:32.342Z,97466.46
2022-08-06T14:57:14.978Z,97463.27
2022-08-06T14:59:48.831Z,97465.19
2022-08-06T15:02:25.023Z,97463.15
2022-08-06T15:04:54.903Z,97467.52
2022-08-06T15:07:25.752Z,97462.73
2022-08-06T15:10:04.245Z,97464.42
2022-08-06T15:12:49.708Z,97463.21
2022-08-06T15:15:26.898Z,97458.42
2022-08-06T15:18:04.340Z,97462.61
2022-08-06T15:20:41.503Z,97464.86
2022-08-06T15:23:09.063Z,97460.46
2022-08-06T15:26:00.156Z,97458.05
2022-08-06T15:28:24.767Z,97462.61
2022-08-06T15:30:52.430Z,97461.56
2022-08-06T15:33:21.156Z,97451.17
2022-08-06T15:35:57.123Z,97453.91
2022-08-06T15:38:27.537Z,97452.04
2022-08-06T15:40:56.126Z,97450.59
2022-08-06T15:43:27.229Z,97446.52
2022-08-06T15:45:58.207Z,97447.84
2022-08-06T15:48:30.492Z,97446.91
2022-08-06T15:51:28.594Z,97446.14
2022-08-06T15:53:54.093Z,97447.46
2022-08-06T15:56:33.360Z,97445.92
2022-08-06T15:59:06.048Z,97448.29
2022-08-06T16:02:01.663Z,97448.73
2022-08-06T16:04:25.331Z,97447.89
2022-08-06T16:06:56.070Z,97445.95
2022-08-06T16:09:28.037Z,97451.12
2022-08-06T16:11:58.583Z,97453.38
2022-08-06T16:14:33.195Z,97453.75
2022-08-06T16:17:10.104Z,97449.89
2022-08-06T16:19:48.636Z,97452.95
2022-08-06T16:22:18.505Z,97453.17
2022-08-06T16:24:45.870Z,97455.74
2022-08-06T16:27:14.875Z,97457.10
2022-08-06T16:29:48.304Z,97453.91
2022-08-06T16:32:21.311Z,97454.73
2022-08-06T16:35:00.906Z,97453.96
2022-08-06T16:37:32.598Z,97455.77
2022-08-06T16:40:09.029Z,97461.05
2022-08-06T16:42:37.589Z,97467.02
2022-08-06T16:45:11.497Z,97464.02
2022-08-06T16:48:20.946Z,97466.55
2022-08-06T16:50:42.671Z,97469.67
2022-08-06T16:54:12.714Z,97470.85
2022-08-06T16:55:57.991Z,97474.66
2022-08-06T17:02:15.261Z,97469.89
2022-08-06T17:04:03.152Z,97471.27
2022-08-06T17:06:31.419Z,97472.13
2022-08-06T17:09:16.312Z,97475.52
2022-08-06T17:11:58.261Z,97479.75
2022-08-06T17:14:32.212Z,97479.10
2022-08-06T17:17:05.439Z,97477.15
2022-08-06T17:19:37.030Z,97481.46
2022-08-06T17:22:06.513Z,97476.96
2022-08-06T17:24:37.785Z,97475.99
2022-08-06T17:27:15.182Z,97481.64
2022-08-06T17:29:49.224Z,97481.10
2022-08-06T17:32:29.985Z,97477.58
2022-08-06T17:35:10.467Z,97479.98
2022-08-06T17:37:44.235Z,97478.34
2022-08-06T17:40:19.398Z,97482.60
2022-08-06T17:43:12.212Z,97488.83
2022-08-06T17:45:52.320Z,97486.38
2022-08-06T17:48:31.119Z,97487.29
2022-08-06T17:50:59.479Z,97491.46
2022-08-06T17:53:53.593Z,97493.73
2022-08-06T17:56:29.411Z,97491.14
2022-08-06T17:59:17.978Z,97487.55
2022-08-06T18:01:50.302Z,97492.77
2022-08-06T18:04:21.921Z,97494.59
2022-08-06T18:06:56.932Z,97493.23
2022-08-06T18:10:09.313Z,97495.08
2022-08-06T18:12:13.763Z,97495.52
2022-08-06T18:14:42.858Z,97496.98
2022-08-06T18:17:19.944Z,97500.56
2022-08-06T18:19:47.093Z,97506.76
2022-08-06T18:22:23.217Z,97508.61
2022-08-06T18:24:55.428Z,97514.10
2022-08-06T18:27:54.101Z,97514.63
2022-08-06T18:30:36.752Z,97518.88
2022-08-06T18:33:08.170Z,97519.90
2022-08-06T18:35:55.881Z,97521.94
2022-08-06T18:38:31.952Z,97526.17
2022-08-06T18:41:06.077Z,97528.56
2022-08-06T18:43:55.247Z,97525.21
2022-08-06T18:47:02.261Z,97528.73
2022-08-06T18:49:27.099Z,97529.52
2022-08-06T18:52:00.899Z,97529.20
2022-08-06T18:54:28.504Z,97537.99
2022-08-06T18:56:57.910Z,97536.87
2022-08-06T18:59:29.689Z,97540.73
2022-08-06T19:02:00.578Z,97539.40
2022-08-06T19:04:29.954Z,97541.34
2022-08-06T19:07:06.012Z,97545.85
2022-08-06T19:09:36.498Z,97552.80
2022-08-06T19:12:12.964Z,97566.00
2022-08-06T19:14:48.689Z,97573.29
2022-08-06T19:17:47.798Z,97572.17
2022-08-06T19:20:20.459Z,97568.86
2022-08-06T19:22:53.068Z,97578.05
2022-08-06T19:25:28.719Z,97578.39
2022-08-06T19:28:35.329Z,97573.05
2022-08-06T19:31:00.099Z,97576.15
2022-08-06T19:33:27.453Z,97581.23
2022-08-06T19:36:06.954Z,97588.86
2022-08-06T19:38:39.573Z,97587.92
2022-08-06T19:41:09.998Z,97591.35
2022-08-06T19:44:25.846Z,97591.33
2022-08-06T19:46:34.855Z,97600.04
2022-08-06T19:49:04.469Z,97606.91
2022-08-06T19:52:02.481Z,97608.48
2022-08-06T19:54:26.327Z,97607.77
2022-08-06T19:57:08.147Z,97612.39
2022-08-06T20:00:52.275Z,97615.39
2022-08-06T20:02:26.133Z,97618.10
2022-08-06T20:04:56.382Z,97621.23
2022-08-06T20:07:27.624Z,97621.70
2022-08-06T20:09:59.963Z,97629.16
2022-08-06T20:12:34.757Z,97629.96
2022-08-06T20:15:06.040Z,97633.23
2022-08-06T20:17:49.201Z,97635.14
2022-08-06T20:20:29.240Z,97638.85
2022-08-06T20:23:11.364Z,97641.52
2022-08-06T20:26:09.541Z,97651.09
2022-08-06T20:29:10.301Z,97655.09
2022-08-06T20:31:21.825Z,97656.16
2022-08-06T20:33:59.027Z,97656.13
2022-08-06T20:36:32.005Z,97659.67
2022-08-06T20:39:01.498Z,97662.70
2022-08-06T20:42:02.165Z,97664.08
2022-08-06T20:44:19.843Z,97667.77
2022-08-06T20:47:45.723Z,97668.98
2022-08-06T20:50:02.309Z,97672.23
2022-08-06T20:52:24.547Z,97677.05
2022-08-06T20:54:52.994Z,97684.50
2022-08-06T20:57:27.772Z,97686.42
2022-08-06T20:59:57.260Z,97686.23
2022-08-06T21:02:25.896Z,97691.27
2022-08-06T21:05:16.643Z,97692.13
2022-08-06T21:07:57.370Z,97693.61
2022-08-06T21:10:31.668Z,97700.11
2022-08-06T21:13:02.487Z,97701.74
2022-08-06T21:15:55.009Z,97695.89
2022-08-06T21:18:22.095Z,97695.71
2022-08-06T21:20:55.568Z,97693.91
2022-08-06T21:23:42.163Z,97692.00
2022-08-06T21:26:11.570Z,97692.79
2022-08-06T21:28:54.609Z,97693.05
2022-08-06T21:31:25.237Z,97696.20
2022-08-06T21:33:56.486Z,97704.00
2022-08-06T21:36:26.030Z,97707.86
2022-08-06T21:38:57.282Z,97708.33
2022-08-06T21:41:29.971Z,97710.61
2022-08-06T21:44:15.627Z,97709.77
2022-08-06T21:46:49.879Z,97708.69
2022-08-06T21:49:21.597Z,97708.64
2022-08-06T21:52:05.013Z,97710.98
2022-08-06T21:54:32.158Z,97711.27
2022-08-06T21:57:02.116Z,97716.77
2022-08-06T21:59:46.394Z,97719.64
2022-08-06T22:02:21.543Z,97715.86
2022-08-06T22:05:00.084Z,97715.08
2022-08-06T22:08:04.691Z,97717.39
2022-08-06T22:10:28.976Z,97718.50
2022-08-06T22:13:13.301Z,97723.04
2022-08-06T22:15:47.062Z,97724.49
2022-08-06T22:18:18.892Z,97725.70
2022-08-06T22:21:00.100Z,97718.55
2022-08-06T22:23:29.698Z,97718.54
2022-08-06T22:26:01.386Z,97718.21
2022-08-06T22:28:33.788Z,97721.20
2022-08-06T22:31:08.121Z,97724.35
2022-08-06T22:33:58.480Z,97726.42
2022-08-06T22:36:34.469Z,97729.46
2022-08-06T22:39:05.329Z,97731.23
2022-08-06T22:41:42.919Z,97726.48
2022-08-06T22:44:34.379Z,97726.91
2022-08-06T22:47:06.631Z,97726.27
2022-08-06T22:50:00.390Z,97730.95
2022-08-06T22:52:44.940Z,97732.34
2022-08-06T22:55:18.050Z,97732.58
2022-08-06T22:58:47.692Z,97727.86
2022-08-06T23:00:37.421Z,97725.90
2022-08-06T23:03:13.387Z,97725.55
2022-08-06T23:05:44.266Z,97728.14
2022-08-06T23:08:13.202Z,97729.17
2022-08-06T23:10:48.238Z,97730.48
2022-08-06T23:13:25.423Z,97733.05
2022-08-06T23:15:58.371Z,97734.88
2022-08-06T23:18:30.105Z,97743.33
2022-08-06T23:21:20.513Z,97741.51
2022-08-06T23:23:54.521Z,97742.11
2022-08-06T23:26:32.031Z,97739.45
2022-08-06T23:29:08.857Z,97743.41
2022-08-06T23:31:38.369Z,97741.98
2022-08-06T23:34:34.361Z,97744.10
2022-08-06T23:36:58.188Z,97750.59
2022-08-06T23:39:29.117Z,97747.84
2022-08-06T23:42:14.411Z,97746.45
2022-08-06T23:44:51.561Z,97746.93
2022-08-06T23:47:53.804Z,97748.39
2022-08-06T23:50:09.647Z,97752.80
2022-08-06T23:52:41.754Z,97751.94
2022-08-06T23:55:26.154Z,97754.08
2022-08-06T23:58:00.586Z,97750.36
